Bbg Ambition — VRPR3 — position and weather

sailwx.info

Track history (hours):
 
Tides and Currents Weather Stations Pressure Air Temp Water Temp Dewpoint Dewpoint Depression Visibility Wind Speed Wind Dir Waves Ship Positions

Bbg Ambition

Last reported at 2018-May-21 01:07 UTC. Time now 2018-Jun-23 02:56 UTC.
Position N 31°05' E 122°30'.
Warning: this ship's position is 33 days out of date.

Length 229 m; draft 7.2 m.

Type: Cargo ship. MMSI: 477129200.

Date/timePositionNaut miles runAvg speedWind from/ knotsBaromVisibWave heightAir tempDewpointWater temp
2018-May-21 01:07N 31°05' E 122°30'4 9.1
2018-May-21 00:41N 31°06' E 122°25'312.2
2018-May-21 00:28N 31°06' E 122°22'613.5
2018-May-21 00:00N 31°08' E 122°15'815.3
2018-May-20 23:28N 31°13' E 122°08'714.4
2018-May-20 23:00N 31°15' E 122°00'713.5
2018-May-20 22:29N 31°16' E 121°52'613.0
2018-May-20 22:00N 31°18' E 121°45'1810.2
2018-May-20 20:11N 31°28' E 121°27'210.2
2018-May-20 20:00N 31°30' E 121°26'5 9.2
2018-May-20 19:30N 31°32' E 121°21'5 9.5
2018-May-20 19:00N 31°36' E 121°17'510.1
2018-May-20 18:30N 31°39' E 121°13'611.6
2018-May-20 18:00N 31°43' E 121°08'3411.6
2018-May-20 15:08N 32°00' E 120°34'212.8
2018-May-20 14:59N 32°01' E 120°32'613.0
2018-May-20 14:30N 32°01' E 120°25'  
2018-May-17 15:55N 32°01' E 120°23'4 7.8
2018-May-17 15:27N 32°02' E 120°27'3 7.7
2018-May-17 15:00N 32°02' E 120°31'33 7.1
2018-May-17 10:20N 31°45' E 121°05'3 8.6
2018-May-17 10:00N 31°43' E 121°08'5 9.5
2018-May-17 09:30N 31°40' E 121°12'5 9.9
2018-May-17 09:00N 31°37' E 121°16'510.1
2018-May-17 08:30N 31°33' E 121°20'510.8
2018-May-17 08:00N 31°30' E 121°25'6 9.9
2018-May-17 07:24N 31°26' E 121°30'3 7.5
2018-May-17 07:00N 31°24' E 121°33'610.5
2018-May-17 06:27N 31°21' E 121°39'13 9.5
2018-May-17 05:05N 31°16' E 121°53'1 9.2
2018-May-17 04:57N 31°16' E 121°54'510.8
2018-May-17 04:30N 31°15' E 121°60'510.4
2018-May-17 04:00N 31°14' E 122°06'1210.7
2018-May-17 02:50N 31°07' E 122°18'411.9
2018-May-17 02:29N 31°06' E 122°23'7 9.8
2018-May-17 01:48N 31°08' E 122°30'810.0
2018-May-17 00:58N 31°07' E 122°40'7 6.6
2018-May-16 23:50N 31°15' E 122°42'2 0.2
2018-May-16 14:01N 31°16' E 122°41'0 0.0
2018-May-16 13:58N 31°16' E 122°41'0 0.1
2018-May-16 11:49N 31°16' E 122°41'0 0.4
2018-May-16 11:25N 31°16' E 122°42'0 0.2
2018-May-16 10:58N 31°16' E 122°42'0 0.2
2018-May-16 10:31N 31°16' E 122°42'1 2.3
2018-May-16 10:00N 31°17' E 122°42'3 6.6
2018-May-16 09:30N 31°20' E 122°41'611.7
2018-May-16 09:00N 31°24' E 122°36'612.1
2018-May-16 08:31N 31°29' E 122°32'611.4
2018-May-16 08:00N 31°35' E 122°32'810.7
2018-May-16 07:13N 31°43' E 122°32'  
Track history (hours):
 
Tides and Currents Weather Stations Pressure Air Temp Water Temp Dewpoint Dewpoint Depression Visibility Wind Speed Wind Dir Waves Ship Positions

Bbg Ambition

Last reported at 2018-May-21 01:07 UTC. Time now 2018-Jun-23 02:56 UTC.
Position N 31°05' E 122°30'.
Warning: this ship's position is 33 days out of date.

Length 229 m; draft 7.2 m.

Type: Cargo ship. MMSI: 477129200.

Date/timePositionNaut miles runAvg speedWind from/ knotsBaromVisibWave heightAir tempDewpointWater temp
2018-May-21 01:07N 31°05' E 122°30'4 9.1
2018-May-21 00:41N 31°06' E 122°25'312.2
2018-May-21 00:28N 31°06' E 122°22'613.5
2018-May-21 00:00N 31°08' E 122°15'815.3
2018-May-20 23:28N 31°13' E 122°08'714.4
2018-May-20 23:00N 31°15' E 122°00'713.5
2018-May-20 22:29N 31°16' E 121°52'613.0
2018-May-20 22:00N 31°18' E 121°45'1810.2
2018-May-20 20:11N 31°28' E 121°27'210.2
2018-May-20 20:00N 31°30' E 121°26'5 9.2
2018-May-20 19:30N 31°32' E 121°21'5 9.5
2018-May-20 19:00N 31°36' E 121°17'510.1
2018-May-20 18:30N 31°39' E 121°13'611.6
2018-May-20 18:00N 31°43' E 121°08'3411.6
2018-May-20 15:08N 32°00' E 120°34'212.8
2018-May-20 14:59N 32°01' E 120°32'613.0
2018-May-20 14:30N 32°01' E 120°25'  
2018-May-17 15:55N 32°01' E 120°23'4 7.8
2018-May-17 15:27N 32°02' E 120°27'3 7.7
2018-May-17 15:00N 32°02' E 120°31'33 7.1
2018-May-17 10:20N 31°45' E 121°05'3 8.6
2018-May-17 10:00N 31°43' E 121°08'5 9.5
2018-May-17 09:30N 31°40' E 121°12'5 9.9
2018-May-17 09:00N 31°37' E 121°16'510.1
2018-May-17 08:30N 31°33' E 121°20'510.8
2018-May-17 08:00N 31°30' E 121°25'6 9.9
2018-May-17 07:24N 31°26' E 121°30'3 7.5
2018-May-17 07:00N 31°24' E 121°33'610.5
2018-May-17 06:27N 31°21' E 121°39'13 9.5
2018-May-17 05:05N 31°16' E 121°53'1 9.2
2018-May-17 04:57N 31°16' E 121°54'510.8
2018-May-17 04:30N 31°15' E 121°60'510.4
2018-May-17 04:00N 31°14' E 122°06'1210.7
2018-May-17 02:50N 31°07' E 122°18'411.9
2018-May-17 02:29N 31°06' E 122°23'7 9.8
2018-May-17 01:48N 31°08' E 122°30'810.0
2018-May-17 00:58N 31°07' E 122°40'7 6.6
2018-May-16 23:50N 31°15' E 122°42'2 0.2
2018-May-16 14:01N 31°16' E 122°41'0 0.0
2018-May-16 13:58N 31°16' E 122°41'0 0.1
2018-May-16 11:49N 31°16' E 122°41'0 0.4
2018-May-16 11:25N 31°16' E 122°42'0 0.2
2018-May-16 10:58N 31°16' E 122°42'0 0.2
2018-May-16 10:31N 31°16' E 122°42'1 2.3
2018-May-16 10:00N 31°17' E 122°42'3 6.6
2018-May-16 09:30N 31°20' E 122°41'611.7
2018-May-16 09:00N 31°24' E 122°36'612.1
2018-May-16 08:31N 31°29' E 122°32'611.4
2018-May-16 08:00N 31°35' E 122°32'810.7
2018-May-16 07:13N 31°43' E 122°32'  

Dump ship's entire track history